createdAt,value
2022-12-09T00:02:17.017Z,14.13
2022-12-09T00:04:47.318Z,13.75
2022-12-09T00:07:17.140Z,13.90
2022-12-09T00:09:46.718Z,14.23
2022-12-09T00:12:16.447Z,14.63
2022-12-09T00:14:48.774Z,14.48
2022-12-09T00:17:18.504Z,13.95
2022-12-09T00:19:49.399Z,14.32
2022-12-09T00:22:19.033Z,14.52
2022-12-09T00:24:48.900Z,13.55
2022-12-09T00:27:18.472Z,13.98
2022-12-09T00:29:50.875Z,14.48
2022-12-09T00:32:20.549Z,14.02
2022-12-09T00:34:51.324Z,14.23
2022-12-09T00:37:21.069Z,14.30
2022-12-09T00:39:50.793Z,13.82
2022-12-09T00:42:20.347Z,13.93
2022-12-09T00:44:52.540Z,13.50
2022-12-09T00:47:22.325Z,14.00
2022-12-09T00:49:52.164Z,13.98
2022-12-09T00:52:21.738Z,14.68
2022-12-09T00:54:51.582Z,13.77
2022-12-09T00:57:21.327Z,15.18
2022-12-09T00:59:53.594Z,13.90
2022-12-09T01:02:23.478Z,14.57
2022-12-09T01:04:54.364Z,13.18
2022-12-09T01:07:24.027Z,13.95
2022-12-09T01:09:53.607Z,14.50
2022-12-09T01:12:23.219Z,14.32
2022-12-09T01:14:55.673Z,14.65
2022-12-09T01:17:25.325Z,13.80
2022-12-09T01:19:55.153Z,14.52
2022-12-09T01:22:24.941Z,13.60
2022-12-09T01:24:54.748Z,14.15
2022-12-09T01:27:25.116Z,14.15
2022-12-09T01:29:57.665Z,14.52
2022-12-09T01:32:27.545Z,13.70
2022-12-09T01:34:57.509Z,13.77
2022-12-09T01:37:27.226Z,14.85
2022-12-09T01:39:56.837Z,14.68
2022-12-09T01:42:28.321Z,15.00
2022-12-09T01:45:30.797Z,14.35
2022-12-09T01:48:06.155Z,14.65
2022-12-09T01:50:37.221Z,14.43
2022-12-09T01:53:06.825Z,13.48
2022-12-09T01:55:37.086Z,14.93
2022-12-09T01:58:08.244Z,13.98
2022-12-09T02:00:38.123Z,13.63
2022-12-09T02:03:10.841Z,15.00
2022-12-09T02:05:40.740Z,15.48
2022-12-09T02:08:14.832Z,15.05
2022-12-09T02:10:52.870Z,14.95
2022-12-09T02:13:28.605Z,14.60
2022-12-09T02:16:00.653Z,15.80
2022-12-09T02:18:39.742Z,15.18
2022-12-09T02:21:12.493Z,14.80
2022-12-09T02:23:44.711Z,14.85
2022-12-09T02:26:22.317Z,15.30
2022-12-09T02:29:14.304Z,16.17
2022-12-09T02:31:57.155Z,15.32
2022-12-09T02:34:31.741Z,16.85
2022-12-09T02:37:09.344Z,16.02
2022-12-09T02:39:42.251Z,15.90
2022-12-09T02:42:14.114Z,16.67
2022-12-09T02:44:44.625Z,15.68
2022-12-09T02:47:18.371Z,15.25
2022-12-09T02:49:54.128Z,15.77
2022-12-09T02:52:25.857Z,16.05
2022-12-09T02:54:56.673Z,15.77
2022-12-09T02:57:29.098Z,15.43
2022-12-09T02:59:59.208Z,15.38
2022-12-09T03:02:32.489Z,16.00
2022-12-09T03:05:11.976Z,16.47
2022-12-09T03:07:46.494Z,16.45
2022-12-09T03:10:19.755Z,15.60
2022-12-09T03:12:52.785Z,15.37
2022-12-09T03:15:27.599Z,16.42
2022-12-09T03:17:59.883Z,16.42
2022-12-09T03:20:33.434Z,16.25
2022-12-09T03:23:05.791Z,16.38
2022-12-09T03:25:37.858Z,15.93
2022-12-09T03:28:08.813Z,15.80
2022-12-09T03:30:40.987Z,16.13
2022-12-09T03:33:12.103Z,16.20
2022-12-09T03:35:46.305Z,16.23
2022-12-09T03:38:20.093Z,15.98
2022-12-09T03:40:54.628Z,16.40
2022-12-09T03:43:26.473Z,16.17
2022-12-09T03:45:56.455Z,17.60
2022-12-09T03:48:26.771Z,17.17
2022-12-09T03:51:02.785Z,16.63
2022-12-09T03:53:36.776Z,16.58
2022-12-09T03:56:11.137Z,16.77
2022-12-09T03:58:43.550Z,16.35
2022-12-09T04:01:13.755Z,16.55
2022-12-09T04:03:47.039Z,17.38
2022-12-09T04:06:19.606Z,16.43
2022-12-09T04:08:49.446Z,16.15
2022-12-09T04:11:19.119Z,16.60
2022-12-09T04:13:48.869Z,15.77
2022-12-09T04:16:18.705Z,16.05
2022-12-09T04:18:48.576Z,15.73
2022-12-09T04:21:20.852Z,16.73
2022-12-09T04:23:50.429Z,15.52
2022-12-09T04:26:22.876Z,16.20
2022-12-09T04:28:53.272Z,15.68
2022-12-09T04:31:23.654Z,14.45
2022-12-09T04:33:53.539Z,15.20
2022-12-09T04:36:25.802Z,15.45
2022-12-09T04:38:55.437Z,16.45
2022-12-09T04:41:25.360Z,15.80
2022-12-09T04:43:55.383Z,14.90
2022-12-09T04:46:25.347Z,15.95
2022-12-09T04:48:55.651Z,16.08
2022-12-09T04:51:28.041Z,15.43
2022-12-09T04:53:59.244Z,16.45
2022-12-09T04:56:28.973Z,16.10
2022-12-09T04:58:58.690Z,17.73
2022-12-09T05:01:31.171Z,17.15
2022-12-09T05:04:01.668Z,16.88
2022-12-09T05:06:34.597Z,16.42
2022-12-09T05:09:05.176Z,17.50
2022-12-09T05:11:35.226Z,16.90
2022-12-09T05:14:05.012Z,16.73
2022-12-09T05:16:35.806Z,15.48
2022-12-09T05:19:06.211Z,17.25
2022-12-09T05:21:38.982Z,18.00
2022-12-09T05:24:09.982Z,16.98
2022-12-09T05:26:40.060Z,16.92
2022-12-09T05:29:09.882Z,17.02
2022-12-09T05:31:39.828Z,16.88
2022-12-09T05:34:10.082Z,15.85
2022-12-09T05:36:42.692Z,15.57
2022-12-09T05:39:12.775Z,16.70
2022-12-09T05:41:43.457Z,16.60
2022-12-09T05:44:14.060Z,15.90
2022-12-09T05:46:44.096Z,15.73
2022-12-09T05:49:13.876Z,15.88
2022-12-09T05:51:46.674Z,16.52
2022-12-09T05:54:16.642Z,13.70
2022-12-09T05:56:48.822Z,16.83
2022-12-09T05:59:18.983Z,17.08
2022-12-09T06:01:48.811Z,16.35
2022-12-09T06:04:18.800Z,15.95
2022-12-09T06:06:51.152Z,17.88
2022-12-09T06:09:21.853Z,17.08
2022-12-09T06:11:51.905Z,17.25
2022-12-09T06:14:21.954Z,18.50
2022-12-09T06:16:51.819Z,18.58
2022-12-09T06:19:21.785Z,18.77
2022-12-09T06:21:54.383Z,18.02
2022-12-09T06:24:24.016Z,17.77
2022-12-09T06:26:56.300Z,19.17
2022-12-09T06:29:26.329Z,19.00
2022-12-09T06:31:56.258Z,19.38
2022-12-09T06:34:26.378Z,19.75
2022-12-09T06:36:58.850Z,18.92
2022-12-09T06:39:28.575Z,21.33
2022-12-09T06:41:59.499Z,19.35
2022-12-09T06:44:29.651Z,21.92
2022-12-09T06:46:59.621Z,20.77
2022-12-09T06:49:29.515Z,21.48
2022-12-09T06:52:01.954Z,21.00
2022-12-09T06:54:31.655Z,20.83
2022-12-09T06:57:01.878Z,22.58
2022-12-09T06:59:31.650Z,22.33
2022-12-09T07:02:01.914Z,21.77
2022-12-09T07:04:32.270Z,22.80
2022-12-09T07:07:04.908Z,23.08
2022-12-09T07:09:34.777Z,21.27
2022-12-09T07:12:04.958Z,25.83
2022-12-09T07:14:34.551Z,23.95
2022-12-09T07:17:04.621Z,23.08
2022-12-09T07:19:35.297Z,22.50
2022-12-09T07:22:08.075Z,22.95
2022-12-09T07:24:37.785Z,21.17
2022-12-09T07:27:10.705Z,22.25
2022-12-09T07:29:43.282Z,21.75
2022-12-09T07:32:13.922Z,22.33
2022-12-09T07:34:44.139Z,22.25
2022-12-09T07:37:16.469Z,21.95
2022-12-09T07:39:46.188Z,22.50
2022-12-09T07:42:15.781Z,21.67
2022-12-09T07:44:55.328Z,22.23
2022-12-09T07:47:24.990Z,22.60
2022-12-09T07:49:55.437Z,23.30
2022-12-09T07:52:28.406Z,22.55
2022-12-09T07:54:59.475Z,22.70
2022-12-09T07:57:29.223Z,22.05
2022-12-09T07:59:59.337Z,22.90
2022-12-09T08:02:28.987Z,23.55
2022-12-09T08:04:58.664Z,23.00
2022-12-09T08:07:32.177Z,24.02
2022-12-09T08:10:02.126Z,23.83
2022-12-09T08:12:32.005Z,24.05
2022-12-09T08:15:01.701Z,23.65
2022-12-09T08:17:31.837Z,23.52
2022-12-09T08:20:02.169Z,23.30
2022-12-09T08:22:34.949Z,22.20
2022-12-09T08:25:04.789Z,20.45
2022-12-09T08:27:34.582Z,20.67
2022-12-09T08:30:05.540Z,20.50
2022-12-09T08:32:35.822Z,20.88
2022-12-09T08:35:06.410Z,21.33
2022-12-09T08:37:38.855Z,21.33
2022-12-09T08:40:10.602Z,19.65
2022-12-09T08:42:40.568Z,19.92
2022-12-09T08:45:11.342Z,24.15
2022-12-09T08:47:42.119Z,27.20
2022-12-09T08:50:12.832Z,27.23
2022-12-09T08:52:45.850Z,22.73
2022-12-09T08:55:15.823Z,22.58
2022-12-09T08:57:45.822Z,20.17
2022-12-09T09:00:16.871Z,20.73
2022-12-09T09:02:46.647Z,21.08
2022-12-09T09:05:16.970Z,18.88
2022-12-09T09:07:49.820Z,18.55
2022-12-09T09:10:20.255Z,18.80
2022-12-09T09:12:50.052Z,19.20
2022-12-09T09:15:20.197Z,18.83
2022-12-09T09:17:52.284Z,18.38
2022-12-09T09:20:22.534Z,20.60
2022-12-09T09:23:01.112Z,23.08
2022-12-09T09:25:33.153Z,21.73
2022-12-09T09:28:02.977Z,20.00
2022-12-09T09:30:33.029Z,20.98
2022-12-09T09:33:02.800Z,20.33
2022-12-09T09:35:33.621Z,19.85
2022-12-09T09:38:06.248Z,18.63
2022-12-09T09:40:36.729Z,19.17
2022-12-09T09:43:06.343Z,20.65
2022-12-09T09:45:36.051Z,20.65
2022-12-09T09:48:06.550Z,19.83
2022-12-09T09:50:39.566Z,19.70
2022-12-09T09:53:20.305Z,21.70
2022-12-09T09:55:52.513Z,22.15
2022-12-09T09:58:27.876Z,22.02
2022-12-09T10:01:02.600Z,20.10
2022-12-09T10:03:40.131Z,18.95
2022-12-09T10:06:17.619Z,19.70
2022-12-09T10:08:57.332Z,20.23
2022-12-09T10:11:32.973Z,19.00
2022-12-09T10:14:09.824Z,20.17
2022-12-09T10:16:45.758Z,19.10
2022-12-09T10:19:22.595Z,17.80
2022-12-09T10:21:54.711Z,16.77
2022-12-09T10:24:35.704Z,14.93
2022-12-09T10:27:14.795Z,16.10
2022-12-09T10:29:52.161Z,17.63
2022-12-09T10:32:23.916Z,16.90
2022-12-09T10:34:54.172Z,16.00
2022-12-09T10:37:30.067Z,16.23
2022-12-09T10:40:18.647Z,17.48
2022-12-09T10:43:02.989Z,16.55
2022-12-09T10:46:07.872Z,16.90
2022-12-09T10:48:27.867Z,17.48
2022-12-09T10:51:03.079Z,17.33
2022-12-09T10:53:33.283Z,16.35
2022-12-09T10:56:06.522Z,16.73
2022-12-09T10:58:36.575Z,17.90
2022-12-09T11:01:12.682Z,16.98
2022-12-09T11:03:46.550Z,16.85
2022-12-09T11:06:25.209Z,16.42
2022-12-09T11:08:58.397Z,17.02
2022-12-09T11:11:47.198Z,16.25
2022-12-09T11:14:23.208Z,16.80
2022-12-09T11:16:56.312Z,16.42
2022-12-09T11:19:35.147Z,17.42
2022-12-09T11:22:39.150Z,17.10
2022-12-09T11:25:27.460Z,17.08
2022-12-09T11:28:02.043Z,17.08
2022-12-09T11:30:35.798Z,15.60
2022-12-09T11:33:10.729Z,15.65
2022-12-09T11:35:54.078Z,14.32
2022-12-09T11:38:34.293Z,13.27
2022-12-09T11:41:37.124Z,13.98
2022-12-09T11:44:26.100Z,16.48
2022-12-09T11:47:03.723Z,15.20
2022-12-09T11:49:35.868Z,14.90
2022-12-09T11:52:08.983Z,13.98
2022-12-09T11:54:43.571Z,13.93
2022-12-09T11:57:24.521Z,13.18
2022-12-09T12:00:00.678Z,13.52
2022-12-09T12:02:35.181Z,13.90
2022-12-09T12:05:10.676Z,14.27
2022-12-09T12:07:44.778Z,14.82
2022-12-09T12:10:21.730Z,14.52
2022-12-09T12:13:00.269Z,13.80
2022-12-09T12:15:40.924Z,13.75
2022-12-09T12:18:14.531Z,14.00
2022-12-09T12:20:54.796Z,13.73
2022-12-09T12:23:51.441Z,13.95
2022-12-09T12:26:23.734Z,14.40
2022-12-09T12:29:20.518Z,14.00
2022-12-09T12:32:12.987Z,13.15
2022-12-09T12:34:49.856Z,13.38
2022-12-09T12:37:32.681Z,13.07
2022-12-09T12:40:09.802Z,12.80
2022-12-09T12:43:06.779Z,13.23
2022-12-09T12:45:56.754Z,12.95
2022-12-09T12:48:34.339Z,13.55
2022-12-09T12:51:14.073Z,15.98
2022-12-09T12:53:49.123Z,15.55
2022-12-09T12:56:21.689Z,14.45
2022-12-09T12:59:02.159Z,13.70
2022-12-09T13:01:34.313Z,13.27
2022-12-09T13:04:16.440Z,13.63
2022-12-09T13:06:49.845Z,14.88
2022-12-09T13:09:25.231Z,14.68
2022-12-09T13:12:02.639Z,14.45
2022-12-09T13:14:35.998Z,15.48
2022-12-09T13:17:10.076Z,16.00
2022-12-09T13:19:44.568Z,14.82
2022-12-09T13:22:25.232Z,16.63
2022-12-09T13:25:00.616Z,13.27
2022-12-09T13:27:37.218Z,14.82
2022-12-09T13:30:12.697Z,16.20
2022-12-09T13:33:01.100Z,16.13
2022-12-09T13:35:38.701Z,16.40
2022-12-09T13:38:29.699Z,15.45
2022-12-09T13:40:59.235Z,17.27
2022-12-09T13:43:30.559Z,16.77
2022-12-09T13:46:01.336Z,17.08
2022-12-09T13:48:50.453Z,19.15
2022-12-09T13:51:23.300Z,18.63
2022-12-09T13:53:56.342Z,19.63
2022-12-09T13:56:30.204Z,19.30
2022-12-09T13:59:08.944Z,18.38
2022-12-09T14:01:40.299Z,17.30
2022-12-09T14:04:15.612Z,18.67
2022-12-09T14:06:57.631Z,16.80
2022-12-09T14:09:35.033Z,16.95
2022-12-09T14:12:06.468Z,17.50
2022-12-09T14:15:01.607Z,17.67
2022-12-09T14:18:01.782Z,18.45
2022-12-09T14:20:34.285Z,18.15
2022-12-09T14:23:15.492Z,18.25
2022-12-09T14:26:05.147Z,18.55
2022-12-09T14:29:01.967Z,17.70
2022-12-09T14:32:01.785Z,18.95
2022-12-09T14:34:39.998Z,17.70
2022-12-09T14:37:37.230Z,18.23
2022-12-09T14:40:22.995Z,19.20
2022-12-09T14:42:57.723Z,18.48
2022-12-09T14:45:33.278Z,18.50
2022-12-09T14:48:02.908Z,16.65
2022-12-09T14:50:32.592Z,17.52
2022-12-09T14:53:04.899Z,17.55
2022-12-09T14:55:43.436Z,16.83
2022-12-09T14:58:20.251Z,17.42
2022-12-09T15:00:49.889Z,17.75
2022-12-09T15:03:45.192Z,18.33
2022-12-09T15:06:15.965Z,19.08
2022-12-09T15:08:45.798Z,17.80
2022-12-09T15:11:20.323Z,17.92
2022-12-09T15:13:51.507Z,19.38
2022-12-09T15:16:24.587Z,20.30
2022-12-09T15:18:55.074Z,20.02
2022-12-09T15:21:30.040Z,19.75
2022-12-09T15:24:00.186Z,20.25
2022-12-09T15:26:34.335Z,19.48
2022-12-09T15:31:36.100Z,22.52
2022-12-09T15:34:13.816Z,26.55
2022-12-09T15:36:46.192Z,19.33
2022-12-09T15:39:21.433Z,19.67
2022-12-09T15:42:11.437Z,20.20
2022-12-09T15:44:45.208Z,20.35
2022-12-09T15:47:18.471Z,20.90
2022-12-09T15:49:52.321Z,21.57
2022-12-09T15:52:23.877Z,23.58
2022-12-09T15:54:53.605Z,23.02
2022-12-09T15:57:26.110Z,23.92
2022-12-09T15:59:58.425Z,23.95
2022-12-09T16:02:29.885Z,27.15
2022-12-09T16:05:03.623Z,25.25
2022-12-09T16:07:34.309Z,21.55
2022-12-09T16:10:12.424Z,23.73
2022-12-09T16:12:45.972Z,23.85
2022-12-09T16:15:17.340Z,24.07
2022-12-09T16:17:55.782Z,23.80
2022-12-09T16:20:34.527Z,23.83
2022-12-09T16:23:05.173Z,23.27
2022-12-09T16:25:38.716Z,24.30
2022-12-09T16:28:22.598Z,25.17
2022-12-09T16:30:53.151Z,23.83
2022-12-09T16:33:24.378Z,26.08
2022-12-09T16:36:00.292Z,27.98
2022-12-09T16:38:29.957Z,28.13
2022-12-09T16:41:18.402Z,29.63
2022-12-09T16:43:59.539Z,28.58
2022-12-09T16:46:43.530Z,27.52
2022-12-09T16:49:13.103Z,29.10
2022-12-09T16:51:43.024Z,30.42
2022-12-09T16:54:20.447Z,30.33
2022-12-09T16:56:51.980Z,29.10
2022-12-09T16:59:24.149Z,31.08
2022-12-09T17:01:53.754Z,27.92
2022-12-09T17:04:26.383Z,27.90
2022-12-09T17:06:56.324Z,27.80
2022-12-09T17:09:25.894Z,27.77
2022-12-09T17:11:55.466Z,28.33
2022-12-09T17:14:27.637Z,28.55
2022-12-09T17:16:57.248Z,29.58
2022-12-09T17:19:26.989Z,28.23
2022-12-09T17:21:57.854Z,30.30
2022-12-09T17:24:27.690Z,30.40
2022-12-09T17:26:57.620Z,27.85
2022-12-09T17:29:29.815Z,28.88
2022-12-09T17:31:59.435Z,29.35
2022-12-09T17:34:29.075Z,30.02
2022-12-09T17:36:58.627Z,29.13
2022-12-09T17:39:28.202Z,28.58
2022-12-09T17:41:57.804Z,30.20
2022-12-09T17:44:30.024Z,29.13
2022-12-09T17:46:59.698Z,28.17
2022-12-09T17:49:29.292Z,28.92
2022-12-09T17:51:59.344Z,30.60
2022-12-09T17:54:29.686Z,28.58
2022-12-09T17:56:59.260Z,26.67
2022-12-09T17:59:31.447Z,29.15
2022-12-09T18:02:03.574Z,29.33
2022-12-09T18:04:33.275Z,32.38
2022-12-09T18:07:02.826Z,38.10
2022-12-09T18:09:32.536Z,31.08
2022-12-09T18:12:02.205Z,30.98
2022-12-09T18:14:34.419Z,30.77
2022-12-09T18:17:04.090Z,32.65
2022-12-09T18:19:35.261Z,32.45
2022-12-09T18:22:04.968Z,30.42
2022-12-09T18:24:34.629Z,31.00
2022-12-09T18:27:04.254Z,32.92
2022-12-09T18:29:37.229Z,32.15
2022-12-09T18:32:07.280Z,32.78
2022-12-09T18:34:37.103Z,34.33
2022-12-09T18:37:06.834Z,31.20
2022-12-09T18:39:36.367Z,31.30
2022-12-09T18:42:06.271Z,32.13
2022-12-09T18:44:38.436Z,32.10
2022-12-09T18:47:08.017Z,29.92
2022-12-09T18:49:37.567Z,32.95
2022-12-09T18:52:07.421Z,31.30
2022-12-09T18:54:37.028Z,33.85
2022-12-09T18:57:06.738Z,34.92
2022-12-09T18:59:38.885Z,34.13
2022-12-09T19:02:08.487Z,34.70
2022-12-09T19:04:38.113Z,34.80
2022-12-09T19:07:07.693Z,35.30
2022-12-09T19:09:37.914Z,35.45
2022-12-09T19:12:44.849Z,30.63
2022-12-09T19:15:00.699Z,34.33
2022-12-09T19:17:30.770Z,37.13
2022-12-09T19:20:00.790Z,29.40
2022-12-09T19:22:30.709Z,32.47
2022-12-09T19:25:00.287Z,32.63
2022-12-09T19:27:29.819Z,29.38
2022-12-09T19:30:01.988Z,33.00
2022-12-09T19:32:52.657Z,31.80
2022-12-09T19:35:21.084Z,33.97
2022-12-09T19:37:54.294Z,33.53
2022-12-09T19:40:26.258Z,35.33
2022-12-09T19:42:55.817Z,33.38
2022-12-09T19:45:27.970Z,36.35
2022-12-09T19:47:57.518Z,29.42
2022-12-09T19:50:27.094Z,32.13
2022-12-09T19:52:56.632Z,31.73
2022-12-09T19:55:26.171Z,32.97
2022-12-09T19:57:56.010Z,32.03
2022-12-09T20:00:28.183Z,33.67
2022-12-09T20:02:57.798Z,31.27
2022-12-09T20:05:27.478Z,32.47
2022-12-09T20:07:58.016Z,34.13
2022-12-09T20:10:27.595Z,32.10
2022-12-09T20:12:57.170Z,33.47
2022-12-09T20:15:29.298Z,29.30
2022-12-09T20:17:58.835Z,35.25
2022-12-09T20:20:28.496Z,34.10
2022-12-09T20:22:58.059Z,36.00
2022-12-09T20:25:27.660Z,32.47
2022-12-09T20:27:57.229Z,36.13
2022-12-09T20:30:29.532Z,34.55
2022-12-09T20:32:59.476Z,32.03
2022-12-09T20:35:29.119Z,31.10
2022-12-09T20:37:58.812Z,28.33
2022-12-09T20:40:28.377Z,30.90
2022-12-09T20:42:57.924Z,31.25
2022-12-09T20:45:30.088Z,32.33
2022-12-09T20:47:59.659Z,27.92
2022-12-09T20:50:32.324Z,27.85
2022-12-09T20:53:06.376Z,30.73
2022-12-09T20:55:35.951Z,29.80
2022-12-09T20:58:05.496Z,33.20
2022-12-09T21:00:37.828Z,31.48
2022-12-09T21:03:07.383Z,29.48
2022-12-09T21:05:36.934Z,29.10
2022-12-09T21:08:06.990Z,31.65
2022-12-09T21:10:36.599Z,31.38
2022-12-09T21:13:06.586Z,29.85
2022-12-09T21:15:39.010Z,27.95
2022-12-09T21:18:08.616Z,29.20
2022-12-09T21:20:44.068Z,28.08
2022-12-09T21:23:33.232Z,29.42
2022-12-09T21:26:07.675Z,28.17
2022-12-09T21:28:37.560Z,28.98
2022-12-09T21:31:14.683Z,27.98
2022-12-09T21:33:45.582Z,29.45
2022-12-09T21:36:17.170Z,26.92
2022-12-09T21:38:47.212Z,28.30
2022-12-09T21:41:18.054Z,25.80
2022-12-09T21:43:48.298Z,25.85
2022-12-09T21:46:23.727Z,26.23
2022-12-09T21:48:58.477Z,27.25
2022-12-09T21:51:31.896Z,26.42
2022-12-09T21:54:01.610Z,29.27
2022-12-09T21:56:35.060Z,28.17
2022-12-09T21:59:04.936Z,27.08
2022-12-09T22:01:38.756Z,29.20
2022-12-09T22:04:10.486Z,26.45
2022-12-09T22:06:40.467Z,29.33
2022-12-09T22:09:10.843Z,30.20
2022-12-09T22:11:42.147Z,29.88
2022-12-09T22:14:12.663Z,30.33
2022-12-09T22:16:46.654Z,32.20
2022-12-09T22:19:17.958Z,31.85
2022-12-09T22:21:47.591Z,31.00
2022-12-09T22:24:17.961Z,31.95
2022-12-09T22:26:48.037Z,30.35
2022-12-09T22:29:19.680Z,30.10
2022-12-09T22:31:51.853Z,30.45
2022-12-09T22:34:22.583Z,32.17
2022-12-09T22:36:52.692Z,31.73
2022-12-09T22:39:24.281Z,32.95
2022-12-09T22:41:54.702Z,30.77
2022-12-09T22:44:24.331Z,33.50
2022-12-09T22:46:56.474Z,34.10
2022-12-09T22:49:26.120Z,34.15
2022-12-09T22:52:00.393Z,33.78
2022-12-09T22:54:30.558Z,34.00
2022-12-09T22:57:00.108Z,34.55
2022-12-09T22:59:29.675Z,34.28
2022-12-09T23:02:01.868Z,34.45
2022-12-09T23:04:31.446Z,35.08
2022-12-09T23:07:01.216Z,34.85
2022-12-09T23:09:31.791Z,34.38
2022-12-09T23:12:01.991Z,36.47
2022-12-09T23:14:31.740Z,39.15
2022-12-09T23:17:03.916Z,37.38
2022-12-09T23:19:33.544Z,38.55
2022-12-09T23:22:03.503Z,38.03
2022-12-09T23:24:33.080Z,37.42
2022-12-09T23:27:02.660Z,37.47
2022-12-09T23:29:32.225Z,37.70
2022-12-09T23:32:04.429Z,36.55
2022-12-09T23:34:33.996Z,40.55
2022-12-09T23:37:03.554Z,37.20
2022-12-09T23:39:33.124Z,38.97
2022-12-09T23:42:02.728Z,37.28
2022-12-09T23:44:32.307Z,38.28
2022-12-09T23:47:04.563Z,36.70
2022-12-09T23:49:34.300Z,37.35
2022-12-09T23:52:03.940Z,39.42
2022-12-09T23:54:33.554Z,40.78
2022-12-09T23:57:03.279Z,39.95
2022-12-09T23:59:32.972Z,38.35
